x

Kaunakakai, Molokai Airport (91186) Weather Station

6:54 - Fri 29th Jul 2016 All times are HST. -10 hours from GMT.

  • Wind
    14mph, 24mph gusts
  • Ar Temp 78°f
  • Sea Pressure 1015.6mb
  • Kaunakakai, Molokai Airport
  • Kaunakakai, Molokai Airport

More Historic Weather Station data

Upgrade to MSW Pro to gain access to the past 30 days of data for over 8000 Wavebouys and Weather Stations around the globe.

Join Pro

Comparision Forecast

View Surf forecast
   
Sex 07/29 6:54 14 24 mph 1015.6mb 78f
5:54 14 22 mph 1014.9mb 81f
4:54 17 27 mph 1014.6mb 82f
3:54 14 28 mph 1014.9mb 81f
2:54 14 29 mph 1015.2mb 82f
1:54 14 28 mph 1015.9mb 84f
12:54 16 30 mph 1016.3mb 82f
11:54 14 23 mph 1016.9mb 82f
10:54 14 24 mph 1017.6mb 82f
9:54 17 25 mph 1017.6mb 82f
8:54 12 21 mph 1017.6mb 79f
7:54 14 23 mph 1017.3mb 79f
6:54 14 24 mph 1017.3mb 79f
6:24 14 20 mph 1017.3mb 75f
6:14 9 17 mph 1017.3mb 77f
5:54 10
mph
1017.3mb 77f
4:54 9
mph
1016.9mb 77f
3:54 12 18 mph 1016.9mb 77f
2:54 12 20 mph 1016.9mb 77f
1:54 12
mph
1016.9mb 77f
12:54 12 21 mph 1017.3mb 79f
Qui 07/28 11:54 12 20 mph 1018mb 79f
10:54 14 23 mph 1018.3mb 79f
9:54 16 23 mph 1018.3mb 79f
8:54 16 22 mph 1018mb 78f
7:54 16 23 mph 1017.3mb 79f
6:54 16 25 mph 1016.9mb 79f
5:54 18 27 mph 1016.3mb 81f
4:54 20 31 mph 1015.9mb 82f
3:54 21 32 mph 1015.9mb 84f
2:54 20 31 mph 1015.9mb 84f
1:54 14 28 mph 1015.9mb 84f
12:54 24 35 mph 1016.6mb 86f
11:54 23 35 mph 1016.9mb 85f
10:54 20 33 mph 1016.9mb 84f
9:54 16 30 mph 1017.3mb 84f
8:54 22 31 mph 1017.3mb 82f
5:54 16 25 mph 1016.3mb 79f
4:54 14 25 mph 1015.9mb 79f
3:54 17 25 mph 1015.6mb 79f
2:54 16 22 mph 1015.6mb 79f
1:54 12 24 mph 1016.3mb 79f
12:54 15 25 mph 1016.3mb 79f
Qua 07/27 11:54 20 30 mph 1016.9mb 79f
10:54 18 31 mph 1017.3mb 79f
9:54 16 28 mph 1017.3mb 79f
8:54 16 27 mph 1016.9mb 79f
7:54 20 28 mph 1016.6mb 79f
6:54 18 29 mph 1015.6mb 79f
5:54 16 32 mph 1015.2mb 81f
4:54 23 37 mph 1014.6mb 82f
3:54 21 35 mph 1014.9mb 84f
2:54 20 29 mph 1015.2mb 84f
1:54 16 33 mph 1016.3mb 86f
12:54 22 38 mph 1015.9mb 86f
11:54 18 31 mph 1016.3mb 88f
10:54 21 30 mph 1016.6mb 84f
9:54 20 32 mph 1016.6mb 84f
8:54 17 29 mph 1016.9mb 82f
7:54 17 24 mph 1016.6mb 81f
6:54 15
mph
1016.6mb 81f
5:54 15 23 mph 1015.6mb 79f
4:54 13
mph
1015.6mb 79f
3:54 7
mph
1015.2mb 79f
2:54 7
mph
1015.2mb 79f
1:54 7
mph
1015.6mb 77f
12:54 13 20 mph 1016.6mb 79f
Ter 07/26 11:54 14 27 mph 1016.6mb 79f
10:54 17 28 mph 1016.9mb 79f
9:54 16 28 mph 1016.6mb 79f
8:54 15 23 mph 1016.6mb 79f
7:54 15 25 mph 1016.6mb 81f
6:54 14 24 mph 1016.3mb 81f
5:54 16 24 mph 1015.6mb 82f
4:54 15 28 mph 1015.2mb 84f
3:54 14 20 mph 1014.9mb 88f
2:54 10 17 mph 1014.9mb 90f
1:54 18 36 mph 1015.6mb 86f
12:54 17 23 mph 1015.9mb 88f
11:54 9 21 mph 1016.3mb 90f
10:54 12
mph
1016.6mb 88f
9:54 9
mph
1016.6mb 86f
8:54 6
mph
1016.6mb 84f
7:54 3
mph
1016.6mb 81f
6:54 5
mph
1016.3mb 75f
5:54 5
mph
1015.9mb 72f